createdAt,value
2018-09-28T00:01:19.287Z,3.03
2018-09-28T00:06:22.956Z,2.53
2018-09-28T00:11:26.550Z,3.30
2018-09-28T00:16:30.142Z,2.73
2018-09-28T00:21:33.734Z,3.00
2018-09-28T00:26:37.554Z,2.60
2018-09-28T00:31:41.163Z,2.77
2018-09-28T00:36:44.759Z,2.93
2018-09-28T00:41:48.362Z,2.50
2018-09-28T00:46:51.955Z,3.20
2018-09-28T00:51:55.542Z,3.13
2018-09-28T00:56:59.142Z,3.10
2018-09-28T01:02:02.746Z,3.50
2018-09-28T01:07:06.411Z,3.30
2018-09-28T01:12:10.004Z,2.80
2018-09-28T01:17:13.594Z,3.37
2018-09-28T01:22:17.185Z,3.47
2018-09-28T01:27:20.782Z,3.33
2018-09-28T01:32:24.382Z,2.90
2018-09-28T01:37:27.974Z,3.23
2018-09-28T01:42:31.566Z,3.63
2018-09-28T01:47:35.181Z,3.17
2018-09-28T01:52:38.774Z,3.10
2018-09-28T01:57:42.374Z,3.00
2018-09-28T02:02:45.978Z,3.90
2018-09-28T02:07:49.576Z,3.27
2018-09-28T02:12:53.405Z,3.70
2018-09-28T02:17:56.998Z,3.57
2018-09-28T02:23:00.590Z,3.33
2018-09-28T02:28:04.202Z,3.80
2018-09-28T02:33:07.798Z,4.33
2018-09-28T02:38:11.390Z,4.63
2018-09-28T02:43:14.992Z,4.23
2018-09-28T02:48:18.591Z,4.37
2018-09-28T02:53:22.170Z,4.20
2018-09-28T02:58:25.762Z,4.50
2018-09-28T03:03:29.358Z,5.80
2018-09-28T03:08:32.954Z,5.30
2018-09-28T03:13:36.547Z,6.27
2018-09-28T03:18:40.145Z,5.57
2018-09-28T03:23:43.738Z,6.20
2018-09-28T03:28:47.432Z,6.10
2018-09-28T03:33:51.031Z,6.77
2018-09-28T03:38:54.630Z,7.83
2018-09-28T03:43:58.225Z,7.77
2018-09-28T03:49:01.825Z,6.47
2018-09-28T03:54:05.434Z,6.93
2018-09-28T03:59:09.037Z,7.63
2018-09-28T04:04:12.646Z,6.13
2018-09-28T04:09:16.251Z,6.63
2018-09-28T04:14:19.851Z,8.20
2018-09-28T04:19:23.502Z,6.97
2018-09-28T04:24:27.654Z,7.50
2018-09-28T04:29:31.278Z,8.90
2018-09-28T04:34:34.879Z,8.43
2018-09-28T04:39:38.480Z,8.67
2018-09-28T04:44:42.090Z,8.80
2018-09-28T04:49:45.687Z,8.77
2018-09-28T04:54:50.142Z,8.37
2018-09-28T04:59:53.766Z,7.83
2018-09-28T05:04:57.406Z,8.37
2018-09-28T05:10:01.014Z,9.30
2018-09-28T05:15:04.618Z,8.63
2018-09-28T05:20:08.882Z,9.00
2018-09-28T05:25:12.514Z,8.60
2018-09-28T05:30:16.418Z,9.63
2018-09-28T05:35:20.267Z,7.93
2018-09-28T05:40:23.878Z,9.83
2018-09-28T05:45:27.481Z,9.33
2018-09-28T05:50:31.097Z,9.20
2018-09-28T05:55:34.722Z,8.07
2018-09-28T06:00:43.918Z,8.50
2018-09-28T06:05:51.822Z,7.47
2018-09-28T06:10:55.418Z,7.50
2018-09-28T06:15:59.090Z,8.33
2018-09-28T06:21:02.711Z,7.87
2018-09-28T06:26:06.784Z,8.10
2018-09-28T06:31:10.402Z,6.67
2018-09-28T06:36:14.081Z,6.93
2018-09-28T06:41:17.679Z,6.33
2018-09-28T06:46:21.412Z,5.80
2018-09-28T06:51:25.078Z,3.97
2018-09-28T06:56:28.658Z,3.90
2018-09-28T07:01:32.290Z,3.77
2018-09-28T07:06:35.902Z,2.87
2018-09-28T07:11:39.586Z,2.70
2018-09-28T07:16:43.292Z,1.73
2018-09-28T07:21:46.809Z,1.33
2018-09-28T07:26:50.408Z,1.70
2018-09-28T07:31:54.082Z,1.57
2018-09-28T07:36:57.792Z,1.10
2018-09-28T07:42:01.327Z,1.53
2018-09-28T07:47:04.957Z,1.27
2018-09-28T07:52:09.105Z,2.00
2018-09-28T07:57:12.706Z,1.10
2018-09-28T08:02:16.396Z,1.57
2018-09-28T08:07:21.126Z,2.20
2018-09-28T08:12:24.860Z,1.33
2018-09-28T08:17:28.598Z,1.73
2018-09-28T08:22:32.232Z,1.30
2018-09-28T08:27:35.871Z,1.33
2018-09-28T08:32:39.614Z,1.53
2018-09-28T08:37:43.291Z,2.03
2018-09-28T08:42:46.917Z,1.70
2018-09-28T08:47:50.526Z,1.63
2018-09-28T08:52:54.117Z,2.23
2018-09-28T08:57:57.785Z,1.90
2018-09-28T09:03:01.424Z,2.33
2018-09-28T09:08:05.042Z,1.10
2018-09-28T09:13:08.702Z,2.33
2018-09-28T09:18:12.503Z,2.37
2018-09-28T09:23:16.051Z,1.40
2018-09-28T09:28:19.742Z,1.33
2018-09-28T09:33:23.362Z,1.60
2018-09-28T09:38:26.991Z,1.37
2018-09-28T09:43:30.686Z,1.43
2018-09-28T09:48:34.302Z,2.10
2018-09-28T09:53:37.913Z,1.93
2018-09-28T09:58:41.648Z,1.50
2018-09-28T10:03:49.354Z,2.17
2018-09-28T10:08:52.954Z,1.17
2018-09-28T10:13:56.583Z,1.60
2018-09-28T10:19:00.200Z,1.67
2018-09-28T10:24:03.814Z,1.10
2018-09-28T10:29:07.535Z,1.53
2018-09-28T10:34:11.176Z,1.50
2018-09-28T10:39:14.861Z,1.80
2018-09-28T10:44:18.399Z,1.70
2018-09-28T10:49:22.044Z,1.57
2018-09-28T10:54:25.582Z,1.63
2018-09-28T10:59:29.180Z,1.40
2018-09-28T11:04:32.836Z,1.33
2018-09-28T11:09:36.436Z,1.23
2018-09-28T11:14:39.991Z,1.63
2018-09-28T11:19:43.580Z,1.10
2018-09-28T11:24:47.170Z,1.20
2018-09-28T11:29:50.906Z,1.50
2018-09-28T11:34:54.494Z,1.80
2018-09-28T11:39:58.114Z,1.40
2018-09-28T11:45:01.735Z,1.13
2018-09-28T11:50:05.370Z,1.50
2018-09-28T11:55:09.132Z,1.03
2018-09-28T12:00:13.166Z,1.00
2018-09-28T12:05:16.799Z,1.20
2018-09-28T12:10:20.370Z,1.43
2018-09-28T12:15:24.081Z,1.63
2018-09-28T12:20:27.574Z,1.07
2018-09-28T12:25:31.170Z,1.30
2018-09-28T12:30:34.815Z,1.30
2018-09-28T12:35:38.467Z,1.10
2018-09-28T12:40:42.048Z,1.20
2018-09-28T12:45:45.714Z,1.30
2018-09-28T12:50:49.449Z,1.17
2018-09-28T12:55:53.006Z,1.20
2018-09-28T13:00:56.708Z,1.40
2018-09-28T13:06:00.242Z,1.17
2018-09-28T13:11:04.561Z,1.17
2018-09-28T13:16:08.414Z,1.30
2018-09-28T13:21:12.874Z,1.40
2018-09-28T13:26:16.473Z,1.27
2018-09-28T13:31:20.068Z,1.33
2018-09-28T13:36:24.099Z,1.17
2018-09-28T13:41:27.630Z,0.70
2018-09-28T13:46:31.276Z,1.43
2018-09-28T13:51:34.837Z,1.43
2018-09-28T13:56:38.509Z,1.27
2018-09-28T14:01:42.030Z,1.20
2018-09-28T14:06:45.698Z,1.40
2018-09-28T14:11:49.259Z,1.23
2018-09-28T14:16:52.866Z,1.70
2018-09-28T14:21:56.449Z,1.67
2018-09-28T14:27:00.070Z,1.00
2018-09-28T14:32:03.678Z,1.40
2018-09-28T14:37:07.323Z,1.30
2018-09-28T14:42:10.978Z,1.23
2018-09-28T14:47:14.590Z,1.00
2018-09-28T14:52:18.332Z,1.00
2018-09-28T14:57:21.889Z,1.07
2018-09-28T15:02:25.537Z,1.33
2018-09-28T15:07:29.216Z,1.40
2018-09-28T15:12:32.838Z,1.90
2018-09-28T15:17:36.676Z,1.20
2018-09-28T15:22:40.309Z,1.07
2018-09-28T15:27:44.076Z,1.30
2018-09-28T15:32:47.625Z,1.63
2018-09-28T15:37:51.274Z,1.20
2018-09-28T15:42:54.971Z,1.43
2018-09-28T15:47:58.575Z,1.00
2018-09-28T15:53:02.167Z,1.13
2018-09-28T15:58:05.883Z,1.00
2018-09-28T16:03:09.470Z,0.97
2018-09-28T16:08:13.070Z,1.00
2018-09-28T16:13:16.667Z,0.90
2018-09-28T16:18:20.306Z,1.13
2018-09-28T16:23:23.945Z,1.10
2018-09-28T16:28:27.659Z,1.37
2018-09-28T16:33:32.599Z,1.53
2018-09-28T16:38:36.196Z,1.20
2018-09-28T16:43:39.794Z,3.40
2018-09-28T16:48:43.478Z,0.80
2018-09-28T16:53:47.124Z,1.60
2018-09-28T16:58:50.700Z,1.10
2018-09-28T17:03:54.359Z,1.10
2018-09-28T17:08:58.143Z,1.13
2018-09-28T17:14:01.885Z,1.00
2018-09-28T17:19:05.730Z,0.90
2018-09-28T17:24:09.333Z,1.00
2018-09-28T17:29:12.923Z,1.47
2018-09-28T17:34:16.510Z,1.20
2018-09-28T17:39:20.106Z,1.20
2018-09-28T17:44:23.835Z,1.70
2018-09-28T17:49:29.839Z,2.20
2018-09-28T17:54:35.193Z,1.90
2018-09-28T17:59:38.989Z,2.00
2018-09-28T18:04:42.554Z,2.30
2018-09-28T18:09:46.152Z,1.83
2018-09-28T18:14:49.818Z,1.40
2018-09-28T18:19:53.426Z,1.43
2018-09-28T18:24:57.838Z,1.50
2018-09-28T18:30:03.525Z,1.60
2018-09-28T18:35:07.367Z,1.97
2018-09-28T18:40:10.966Z,1.43
2018-09-28T18:45:14.567Z,1.70
2018-09-28T18:50:18.165Z,1.27
2018-09-28T18:55:21.742Z,1.13
2018-09-28T19:00:25.338Z,1.80
2018-09-28T19:05:29.058Z,1.30
2018-09-28T19:10:32.719Z,1.50
2018-09-28T19:15:36.366Z,1.10
2018-09-28T19:20:39.962Z,1.40
2018-09-28T19:25:43.622Z,1.73
2018-09-28T19:30:47.253Z,1.20
2018-09-28T19:35:50.826Z,1.70
2018-09-28T19:40:54.434Z,1.27
2018-09-28T19:45:58.091Z,2.50
2018-09-28T19:51:02.177Z,1.73
2018-09-28T19:56:05.815Z,2.23
2018-09-28T20:01:09.469Z,1.70
2018-09-28T20:06:13.219Z,1.50
2018-09-28T20:11:16.794Z,2.50
2018-09-28T20:16:20.524Z,1.40
2018-09-28T20:21:24.122Z,1.50
2018-09-28T20:26:27.785Z,2.23
2018-09-28T20:31:31.466Z,1.67
2018-09-28T20:36:36.011Z,1.17
2018-09-28T20:41:39.847Z,1.97
2018-09-28T20:46:43.473Z,1.80
2018-09-28T20:51:47.056Z,1.80
2018-09-28T20:56:50.681Z,1.77
2018-09-28T21:01:54.278Z,1.57
2018-09-28T21:06:57.914Z,1.70
2018-09-28T21:12:01.539Z,1.60
2018-09-28T21:17:05.184Z,1.83
2018-09-28T21:27:16.606Z,1.73
2018-09-28T21:32:20.301Z,1.80
2018-09-28T21:37:23.919Z,2.70
2018-09-28T21:42:27.510Z,1.90
2018-09-28T21:47:31.178Z,1.90
2018-09-28T21:52:34.889Z,1.60
2018-09-28T21:57:38.589Z,1.50
2018-09-28T22:02:42.178Z,1.93
2018-09-28T22:07:45.765Z,2.40
2018-09-28T22:12:49.355Z,1.90
2018-09-28T22:17:52.965Z,2.23
2018-09-28T22:22:57.478Z,1.63
2018-09-28T22:28:01.280Z,1.60
2018-09-28T22:33:04.935Z,1.20
2018-09-28T22:38:08.658Z,1.90
2018-09-28T22:43:12.488Z,1.70
2018-09-28T22:48:16.085Z,2.30
2018-09-28T22:53:19.698Z,1.63
2018-09-28T22:58:23.334Z,2.10
2018-09-28T23:03:27.020Z,1.30
2018-09-28T23:08:30.662Z,2.47
2018-09-28T23:13:34.290Z,1.80
2018-09-28T23:18:37.917Z,1.67
2018-09-28T23:23:41.520Z,2.00
2018-09-28T23:28:45.115Z,1.40
2018-09-28T23:33:48.745Z,1.47
2018-09-28T23:38:52.339Z,1.27
2018-09-28T23:43:55.946Z,1.27
2018-09-28T23:48:59.574Z,1.50
2018-09-28T23:54:03.223Z,1.90
2018-09-28T23:59:06.838Z,1.60
